x

8452944 - Conimicut Light, Ri (cptr1) Weather Station

10:00 - Tue 6th Dec 2016 All times are EST. -5 hours from GMT.

  • Wind
    9mph, 11mph gusts
  • Sea Temp 47°f
  • Air Temp 42°f
  • Sea Pressure 1020.3mb
  • 8452944 - Conimicut Light, Ri
  • 8452944 - Conimicut Light, Ri

More Historic Weather Station data

Upgrade to MSW Pro to gain access to the past 30 days of data for over 8000 Wavebouys and Weather Stations around the globe.

Join Pro

Comparision Forecast

View Surf forecast
   
mar. 12/06 10:00 9 11 mph 1020.3mb 47f 42f
9:54 7 8 mph 1020.4mb 47f 42f
9:48 6
mph
1020.5mb 47f 44f
9:42 5 6 mph 1020.6mb 46f 44f
9:36 5 6 mph 1020.5mb 46f 44f
9:30 3 5 mph 1020.5mb 46f 43f
9:24 3 5 mph 1020.5mb 46f 40f
9:18 3 5 mph 1020.5mb 46f 38f
9:12 5 6 mph 1020.4mb 46f 38f
9:06 5 6 mph 1020.3mb 46f 38f
9:00 5 6 mph 1020.1mb 46f 38f
8:54 5 6 mph 1019.9mb 46f 39f
8:48 3
mph
1019.9mb 46f 39f
8:42 2
mph
1019.9mb 46f 40f
8:36 2 3 mph 1019.8mb 46f 43f
8:30 3
mph
1019.8mb 46f 43f
8:24 3 5 mph 1019.8mb 46f 43f
8:18 2 3 mph 1019.8mb 45f 43f
8:12 2
mph
1019.8mb 45f 43f
8:06 2
mph
1019.9mb 45f 42f
8:00  -  2 mph 1019.9mb 45f 43f
7:54 2 5 mph 1019.8mb 45f 42f
7:48 5
mph
1019.9mb 45f 40f
7:42 5 6 mph 1019.9mb 45f 40f
7:36 5 6 mph 1019.7mb 45f 39f
7:30 5 6 mph 1019.9mb 45f 39f
7:24 5
mph
1019.8mb 45f 39f
7:18 3
mph
1019.8mb 45f 38f
7:12 2 3 mph 1019.9mb 45f 37f
7:06 3 5 mph 1019.9mb 45f 36f
7:00 3 5 mph 1019.8mb 45f 36f
6:54 3 5 mph 1019.8mb 46f 36f
6:48 3 6 mph 1019.8mb 46f 37f
6:42 5 6 mph 1019.8mb 46f 37f
6:36 6 7 mph 1019.8mb 46f 37f
6:30 6 7 mph 1019.6mb 46f 37f
6:24 6
mph
1019.5mb 46f 37f
6:18 6 7 mph 1019.5mb 46f 37f
6:12 5 7 mph 1019.5mb 46f 37f
6:06 7 9 mph 1019.5mb 46f 37f
6:00 7 10 mph 1019.5mb 46f 38f
5:54 7 9 mph 1019.4mb 46f 37f
5:48 7 10 mph 1019.4mb 46f 38f
5:42 9 10 mph 1019.4mb 46f 38f
5:36 9 10 mph 1019.4mb 46f 38f
5:30 9 11 mph 1019.3mb 46f 38f
5:24 9 10 mph 1019.3mb 46f 38f
5:18 8 10 mph 1019.2mb 46f 38f
5:12 8 9 mph 1019.2mb 45f 38f
5:06 8 9 mph 1019.1mb 45f 38f
5:00 8 9 mph 1019.1mb 45f 38f
4:54 7 9 mph 1019.1mb 45f 38f
4:48 9 10 mph 1018.9mb 45f 38f
4:42 9 10 mph 1018.8mb 45f 38f
4:36 9 10 mph 1018.7mb 45f 38f
4:30 10 11 mph 1018.5mb 45f 38f
4:24 9 11 mph 1018.3mb 45f 38f
4:18 9 11 mph 1018.5mb 45f 38f
4:12 11 14 mph 1018.3mb 46f 38f
4:06 10 13 mph 1018.3mb 46f 38f
4:00 11 14 mph 1018.3mb 46f 38f
3:54 11 14 mph 1018.3mb 46f 38f
3:48 11 14 mph 1018.3mb 46f 38f
3:42 13 14 mph 1018.3mb 46f 38f
3:36 11 15 mph 1018.4mb 46f 39f
3:30 13 16 mph 1018.4mb 46f 39f
3:24 13 16 mph 1018.4mb 46f 39f
3:18 13 17 mph 1018.2mb 46f 39f
3:12 13 16 mph 1018.1mb 46f 39f
3:06 14 17 mph 1018mb 46f 39f
3:00 16 20 mph 1017.9mb 46f 39f
2:54 15 21 mph 1017.9mb 46f 39f
2:48 18 22 mph 1017.9mb 46f 39f
2:42 20 23 mph 1017.8mb 46f 40f
2:36 17 21 mph 1017.9mb 46f 40f
2:30 17 21 mph 1018mb 46f 40f
2:24 18 22 mph 1018.1mb 46f 40f
2:18 18 22 mph 1018mb 46f 40f
2:12 17 22 mph 1018mb 46f 40f
2:06 18 22 mph 1017.9mb 46f 40f
2:00 18 22 mph 1017.8mb 46f 40f
1:54 17 20 mph 1017.9mb 46f 40f
1:48 16 20 mph 1017.9mb 46f 40f
1:42 17 23 mph 1017.8mb 46f 40f
1:36 18 21 mph 1017.6mb 45f 40f
1:30 16 20 mph 1017.6mb 45f 40f
1:24 17 21 mph 1017.5mb 45f 40f
1:18 16 18 mph 1017.4mb 45f 40f
1:12 14 18 mph 1017.3mb 45f 40f
1:06 16 20 mph 1017.3mb 45f 40f
1:00 15 20 mph 1017.1mb 45f 39f
12:54 16 20 mph 1017mb 45f 39f
12:48 17 21 mph 1016.9mb 45f 39f
12:42 17 22 mph 1016.7mb 45f 39f
12:36 18 22 mph 1016.7mb 45f 39f
12:30 20 23 mph 1016.7mb 45f 39f
12:24 18 21 mph 1016.7mb 45f 39f
12:18 20 23 mph 1016.7mb 45f 39f
12:12 18 21 mph 1016.6mb 45f 39f
12:06 18 23 mph 1016.5mb 46f 39f
12:00 17 22 mph 1016.5mb 46f 39f
lun. 12/05 11:54 17 20 mph 1016.4mb 46f 39f
11:48 16 20 mph 1016.4mb 46f 39f
11:42 16 18 mph 1016.4mb 46f 39f
11:36 15 20 mph 1016.3mb 47f 39f
11:30 15 17 mph 1016.2mb 47f 39f
11:24 15 18 mph 1016.3mb 47f 39f
11:18 15 21 mph 1016.3mb 47f 39f
11:12 17 22 mph 1016.4mb 47f 39f
11:06 15 18 mph 1016.3mb 47f 39f
11:00 16 20 mph 1016.1mb 47f 40f
10:54 17 21 mph 1016.2mb 47f 40f
10:48 17 21 mph 1016.2mb 47f 40f
10:42 16 18 mph 1016.2mb 47f 40f
10:36 16 20 mph 1016.3mb 47f 40f
10:30 17 20 mph 1016.3mb 47f 40f
10:24 17 20 mph 1016.2mb 47f 40f
10:18 18 23 mph 1016.2mb 47f 40f
10:12 18 22 mph 1016.1mb 47f 41f
10:06 20 25 mph 1016.1mb 47f 41f
10:00 18 24 mph 1016mb 47f 41f
9:54 21 25 mph 1016mb 47f 41f
9:48 20 28 mph 1015.9mb 47f 41f
9:42 23 28 mph 1015.7mb 47f 41f
9:36 24 26 mph 1015.6mb 46f 42f
9:30 22 26 mph 1015.7mb 46f 42f
9:24 22 24 mph 1015.8mb 46f 42f
9:18 22 25 mph 1015.6mb 46f 42f
9:12 18 25 mph 1015.3mb 46f 42f
9:06 20 25 mph 1015.2mb 46f 42f
9:00 21 23 mph 1015.1mb 45f 42f
8:54 20 24 mph 1015.2mb 45f 42f
8:48 20 23 mph 1015.2mb 45f 42f
8:42 20 23 mph 1015mb 45f 42f
8:36 17 22 mph 1014.9mb 45f 42f
8:30 17 22 mph 1014.9mb 45f 42f
8:24 17 20 mph 1015mb 45f 42f
8:18 16 18 mph 1015mb 45f 41f
8:12 18 22 mph 1014.8mb 45f 42f
8:06 18 22 mph 1014.7mb 45f 42f
8:00 18 23 mph 1014.7mb 45f 42f
7:54 18 24 mph 1014.6mb 45f 42f
7:48 21 28 mph 1014.5mb 45f 42f
7:42 21 26 mph 1014.4mb 45f 42f
7:36 21 26 mph 1014.4mb 45f 42f
7:30 22 26 mph 1014.2mb 45f 42f
7:24 23 28 mph 1014.2mb 45f 42f
7:18 25 29 mph 1014mb 45f 42f
7:12 22 25 mph 1013.9mb 45f 42f
7:06 21 22 mph 1014mb 45f 41f
7:00 16 18 mph 1013.9mb 45f 41f
6:54 14 16 mph 1014mb 45f 40f
6:48 15 16 mph 1013.9mb 45f 40f
6:42 11 13 mph 1014mb 45f 40f
6:36 8 10 mph 1014.1mb 45f 39f
6:30 8 10 mph 1014.2mb 45f 39f
6:24 9 11 mph 1014.1mb 45f 39f
6:18 8 10 mph 1014.2mb 45f 39f
6:12 9 11 mph 1014.3mb 45f 39f
6:06 8 10 mph 1014.4mb 45f 38f
6:00 9 11 mph 1014.6mb 45f 38f
5:54 9 10 mph 1014.5mb 45f 39f
5:48 7 8 mph 1014.5mb 45f 39f
5:42 7 9 mph 1014.5mb 45f 39f
5:36 9 11 mph 1014.5mb 45f 40f
5:30 10
mph
1014.6mb 45f 39f
5:24 9
mph
1014.5mb 44f 39f
5:18 7 8 mph 1014.4mb 44f 39f
5:12 8
mph
1014.5mb 44f 39f
5:06 8 11 mph 1014.4mb 44f 40f
5:00 6 7 mph 1014.3mb 44f 40f
4:54 5 6 mph 1014.3mb 44f 40f
4:48 6 7 mph 1014.3mb 44f 40f
4:42 6 7 mph 1014.3mb 44f 40f
4:36 7 8 mph 1014.3mb 44f 40f
4:30 8 10 mph 1014.1mb 44f 41f
4:24 8 10 mph 1014mb 44f 41f
4:18 9 11 mph 1014mb 45f 41f
4:12 7 10 mph 1014mb 45f 41f
4:06 9 10 mph 1014mb 45f 41f
4:00 8 9 mph 1013.9mb 45f 41f
3:54 9 11 mph 1013.7mb 45f 41f
3:48 10 13 mph 1013.8mb 45f 42f
3:42 11 14 mph 1013.8mb 45f 42f
3:36 13 15 mph 1013.7mb 45f 42f
3:30 15 17 mph 1013.6mb 45f 42f
3:24 15 18 mph 1013.6mb 45f 42f
3:18 15 18 mph 1013.6mb 45f 42f
3:12 14 17 mph 1013.5mb 45f 42f
3:06 16 18 mph 1013.5mb 45f 42f
3:00 15 20 mph 1013.3mb 45f 42f
2:54 15 17 mph 1013.4mb 45f 42f
2:48 14 16 mph 1013.1mb 45f 41f
2:42 10 14 mph 1012.9mb 45f 41f
2:36 8 11 mph 1012.9mb 45f 40f
2:30 9 11 mph 1012.9mb 45f 40f
2:24 5 7 mph 1012.9mb 45f 40f
2:18 5 8 mph 1013mb 45f 39f
2:12 3 5 mph 1012.9mb 45f 38f
2:06 3 5 mph 1012.8mb 45f 38f
2:00 5
mph
1012.8mb 45f 38f
1:54 3 5 mph 1012.7mb 45f 38f
1:48 5 6 mph 1012.8mb 45f 38f
1:42 5 6 mph 1012.8mb 45f 38f
1:36 5 6 mph 1012.8mb 45f 38f
1:30 3 5 mph 1012.7mb 45f 37f
1:24 5 6 mph 1012.8mb 45f 37f
1:18 5 6 mph 1012.9mb 45f 37f
1:12 5 6 mph 1013mb 45f 37f
1:06 7 8 mph 1013mb 45f 37f
1:00 6 8 mph 1013.1mb 45f 37f
12:54 7 8 mph 1013.1mb 45f 37f
12:48 6 7 mph 1013.1mb 45f 37f
12:42 6 7 mph 1013.2mb 45f 36f
12:36 6 7 mph 1013.3mb 45f 36f
12:30 6 7 mph 1013.3mb 45f 36f
12:24 6 7 mph 1013.2mb 45f 36f
12:18 6 7 mph 1013.3mb 45f 36f
12:12 6
mph
1013.4mb 45f 36f
12:06 5 6 mph 1013.4mb 45f 36f
12:00 5 6 mph 1013.6mb 45f -
11:54 5 6 mph 1013.7mb 45f 36f
11:48 3 5 mph 1013.7mb 45f 36f
11:42 3 5 mph 1013.9mb 45f 36f
11:36 5
mph
1013.9mb 45f 35f
11:30 2 3 mph 1014mb 45f 36f
11:24 2
mph
1014.2mb 46f 36f
11:18 2 3 mph 1014.4mb 46f 35f
11:12 2 3 mph 1014.4mb 46f 35f
11:06 3 5 mph 1014.6mb 46f 35f
11:00 3 5 mph 1014.8mb 46f 35f
10:54 3 5 mph 1014.9mb 46f 35f
10:48 3 5 mph 1015.1mb 46f 35f
10:42 3 6 mph 1015.1mb 46f 35f
10:36 3 5 mph 1015.3mb 46f 35f
10:30 3 5 mph 1015.4mb 46f 34f
10:24 3 5 mph 1015.8mb 46f 34f
10:18 2 3 mph 1015.8mb 46f 35f
10:12 3 5 mph 1015.8mb 46f 34f
10:06 3 5 mph 1016mb 46f 34f
10:00 3 5 mph 1016.3mb 46f 34f
9:54 3 5 mph 1016.4mb 46f 34f
9:48 5 6 mph 1016.5mb 46f 34f
9:42 3 6 mph 1016.5mb 46f 34f
9:36 5 7 mph 1016.5mb 46f 34f
9:30 6 7 mph 1016.5mb 46f 33f
9:24 6
mph
1016.4mb 46f 33f
9:18 6 7 mph 1016.6mb 46f 34f
9:12 7
mph
1016.6mb 45f 33f
9:06 7 9 mph 1016.6mb 45f 34f
9:00 6 7 mph 1016.6mb 45f 33f
8:54 6 7 mph 1016.6mb 45f 33f
8:48 3 7 mph 1016.6mb 45f 33f
8:42 6 7 mph 1016.6mb 45f 33f
8:36 5 6 mph 1016.7mb 45f 33f
8:30 5 7 mph 1016.7mb 45f 32f
8:24 5 7 mph 1016.7mb 45f 33f
8:18 5 6 mph 1016.7mb 45f 32f
8:12 5 6 mph 1016.8mb 45f 32f
8:06 5 6 mph 1016.9mb 45f 32f
8:00 6 7 mph 1017.1mb 45f 32f
7:54 5 7 mph 1017.2mb 45f 32f
7:48 6 7 mph 1017.3mb 45f 33f
7:42 7 8 mph 1017.3mb 45f 32f
7:36 7 8 mph 1017.3mb 45f 32f
7:30 6 7 mph 1017.4mb 45f 32f
7:24 6 7 mph 1017.5mb 45f 33f
7:18 6 8 mph 1017.5mb 45f 32f
7:12 6 7 mph 1017.4mb 45f 32f
7:06 6 7 mph 1017.5mb 45f 32f
7:00 5 7 mph 1017.3mb 45f 31f
6:54 6 7 mph 1017.2mb 45f 31f
6:48 6 7 mph 1017.4mb 45f 31f
6:42 6 7 mph 1017.4mb 45f 31f
6:36 5 6 mph 1017.6mb 45f 31f
6:30 5 6 mph 1017.8mb 45f 31f
6:24 5 6 mph 1018mb 45f 32f
6:18 3 6 mph 1018mb 45f 32f
6:12 3 6 mph 1017.6mb 45f 32f
6:06 2 3 mph 1018.4mb 45f 32f
6:00 2 3 mph 1018.3mb 45f 32f
5:54 2 3 mph 1018.1mb 45f 33f
5:48 3 6 mph 1018.1mb 45f 33f
5:42 5 8 mph 1018.1mb 45f 33f
5:36 6 7 mph 1018.3mb 45f 33f
5:30 5 7 mph 1018.5mb 45f 33f
5:24 5 7 mph 1018.6mb 45f 33f
5:18 6 7 mph 1018.9mb 45f 33f
5:12 5 7 mph 1019.2mb 45f 33f
5:06 5 6 mph 1019.2mb 45f 33f
5:00 6 7 mph 1019mb 45f 33f
4:54 7 8 mph 1019mb 45f 33f
4:48 7 8 mph 1019.1mb 45f 33f
4:42 6 8 mph 1019.6mb 45f 33f
4:36 7 8 mph 1019.7mb 45f 34f
4:30 7 8 mph 1019.7mb 45f 34f
4:24 5 7 mph 1020mb 45f 34f
4:18 5 7 mph 1020.1mb 45f 33f
4:12 5 6 mph 1020.1mb 45f 33f
4:06 5 6 mph 1020.1mb 45f 33f
4:00 5 7 mph 1020.2mb 45f 33f
3:54 6 7 mph 1020.1mb 45f 33f
3:48 5 6 mph 1020.1mb 45f 33f
3:42 5 6 mph 1019.9mb 45f 32f
3:36 3 5 mph 1019.9mb 45f 32f
3:30 3 5 mph 1019.7mb 45f 32f
3:24 3 8 mph 1019.2mb 45f 33f
3:18 7 8 mph 1019mb 45f 33f
3:12 6 7 mph 1019.1mb 45f 33f
3:06 3 6 mph 1019.3mb 45f 33f
3:00 5
mph
1019.5mb 45f 33f
2:54 3 5 mph 1019.8mb 45f 33f
2:48 5 6 mph 1019.8mb 45f 33f
2:42 5 6 mph 1019.9mb 45f 33f
2:36 5 6 mph 1020.1mb 45f 33f
2:30 5 6 mph 1020.3mb 45f 33f
2:24 5 6 mph 1020.4mb 45f 33f
2:18 5 6 mph 1020.4mb 45f 33f
2:12 3 8 mph 1020.3mb 45f 33f
2:06 6 7 mph 1020.4mb 45f 33f
2:00 5 7 mph 1020.6mb 45f 33f
1:54 6
mph
1020.8mb 45f 33f
1:48 3 6 mph 1020.8mb 45f 33f
1:42 5 6 mph 1020.8mb 45f 33f
1:36 6 7 mph 1020.8mb 45f 33f
1:30 5 7 mph 1020.7mb 45f 33f
1:24 6 8 mph 1020.7mb 45f 33f
1:18 7 8 mph 1020.5mb 45f 33f
1:12 6 7 mph 1020.5mb 45f 33f
1:06 5 6 mph 1020.4mb 45f 33f
1:00 6 7 mph 1020.5mb 45f 33f
12:54 6 8 mph 1020.7mb 45f 33f
12:48 6 7 mph 1020.6mb 45f -
12:42 6 7 mph 1020.7mb 45f -
12:36 6 7 mph 1020.6mb 45f -
12:30 6 8 mph 1020.9mb 45f 33f
12:24 6 7 mph 1020.8mb 45f 33f
12:18 5 8 mph 1020.9mb 45f 33f
12:12 6 9 mph 1020.8mb 45f 33f
12:06 7
mph
1020.8mb 45f 33f
12:00 6 8 mph 1021.1mb 45f 33f
dim. 12/04 11:54 6 7 mph 1021mb 45f 33f
11:48 6 7 mph 1021.2mb 45f 33f
11:42 6 9 mph 1021.2mb 45f 33f
11:36 7 9 mph 1021.3mb 46f 33f
11:30 9 11 mph 1021.3mb 46f 33f
11:24 9 10 mph 1021.3mb 46f 33f
11:18 8 10 mph 1021.4mb 46f 33f
11:12 9 10 mph 1021.4mb 47f 33f
11:06 7 8 mph 1021.6mb 47f 33f
11:00 6 7 mph 1021.7mb 47f 33f
10:54 5 6 mph 1021.7mb 47f 33f
10:48 3 6 mph 1021.9mb 47f 33f
10:42 5 6 mph 1021.9mb 47f 33f
10:36 3 6 mph 1022mb 47f 34f
10:30 5 7 mph 1022mb 47f 34f
10:24 7 9 mph 1021.9mb 47f 34f
10:18 6 8 mph 1021.8mb 46f 34f
10:12 6 9 mph 1021.8mb 46f 34f
10:06 8 11 mph 1021.9mb 46f 35f
10:00 6 9 mph 1022.1mb 46f 35f
9:54 6 8 mph 1022.2mb 46f 35f
9:48 6 8 mph 1022.2mb 46f 35f
9:42 6 8 mph 1022.2mb 46f 35f
9:36 6 8 mph 1022.2mb 46f 35f
9:30 6 7 mph 1022mb 46f 36f
9:24 6 7 mph 1022.3mb 46f 36f
9:18 6
mph
1022.3mb 46f 36f
9:12 5 6 mph 1022.4mb 46f 36f
9:06 5 6 mph 1022.3mb 46f 36f
9:00 5 6 mph 1022.3mb 46f 36f
8:54 5 7 mph 1022.2mb 46f 37f
8:48 6 8 mph 1022.2mb 46f 37f
8:42 7 8 mph 1022.2mb 46f 37f
8:36 7 8 mph 1022.3mb 46f 37f
8:30 6 7 mph 1022.4mb 46f 37f
8:24 6 8 mph 1022.5mb 46f 37f
8:18 6 8 mph 1022.5mb 46f 37f
8:12 7 9 mph 1022.5mb 46f 37f
8:06 7 9 mph 1022.5mb 46f 37f
8:00 8 9 mph 1022.6mb 46f 38f
7:54 9 10 mph 1022.6mb 46f 38f
7:48 7 8 mph 1022.5mb 46f 38f
7:42 7 9 mph 1022.5mb 46f 38f
7:36 7 9 mph 1022.4mb 46f 38f
7:30 8 9 mph 1022.6mb 46f 37f
7:24 6 7 mph 1022.6mb 46f 37f
7:18 5 6 mph 1022.6mb 46f 37f
7:12 6 7 mph 1022.6mb 46f 37f
7:06 6 7 mph 1022.6mb 46f 37f
7:00 7
mph
1022.4mb 46f 37f
6:54 6 7 mph 1022.4mb 46f 38f
6:48 6 8 mph 1022.4mb 46f 38f
6:42 7 8 mph 1022.3mb 46f 38f
6:36 6 7 mph 1022.3mb 46f 38f
6:30 6 8 mph 1022.3mb 46f 38f
6:24 6 8 mph 1022.3mb 46f 39f
6:18 7 8 mph 1022.1mb 46f 39f
6:12 7 8 mph 1022.1mb 46f 39f
6:06 6 8 mph 1022mb 46f 39f
6:00 7 8 mph 1021.9mb 46f 39f
5:54 7 9 mph 1022mb 46f 39f
5:48 7 8 mph 1021.9mb 46f 39f
5:42 7 9 mph 1021.9mb 46f 39f
5:36 7
mph
1021.9mb 46f 39f
5:18 7 9 mph 1021.8mb 46f 40f
5:12 8 11 mph 1021.7mb 46f 40f
5:00 9 11 mph 1021.8mb 46f 40f
4:24 14
mph
1021.2mb 46f 41f
4:18 11 15 mph 1021.3mb 46f 41f
4:06 9 13 mph 1021.3mb 46f 41f
4:00 11 14 mph 1021.3mb 46f 41f
3:54 10 15 mph 1021.3mb 46f 42f
3:48 8 10 mph 1021.5mb 46f 41f
3:42 9 14 mph 1021.6mb 46f 43f
3:36 13 15 mph 1021.5mb 46f 42f
3:30 10 14 mph 1021.4mb 46f 41f
3:24 8 13 mph 1021.3mb 46f 42f
3:18 10 14 mph 1021.3mb 46f 41f
3:12 8 11 mph 1021.3mb 46f 42f
3:06 9 11 mph 1021.3mb 46f 44f
3:00 8 13 mph 1021.4mb 46f 44f
2:54 11 13 mph 1021.4mb 46f 43f
2:48 10 13 mph 1021.5mb 46f 42f
2:42 15 17 mph 1021.5mb 46f 42f
2:36 10 13 mph 1021.5mb 46f 41f
2:30 10 13 mph 1021.4mb 46f 43f
2:24 13 16 mph 1021.2mb 46f 43f
2:18 14 15 mph 1021.2mb 46f 42f
2:12 9 11 mph 1021.2mb 46f 42f
2:06 10 14 mph 1021.1mb 46f 41f
2:00 13 15 mph 1021mb 46f 42f
1:54 8 10 mph 1021.1mb 46f 42f
1:48 9 11 mph 1021.2mb 46f 40f
1:42 8 16 mph 1021.2mb 46f 40f
1:36 13 15 mph 1021.1mb 46f 41f
1:30 10 15 mph 1021.1mb 46f 40f
1:24 10 13 mph 1021.2mb 46f 42f
1:18 10 14 mph 1021.2mb 46f 39f
1:12 14 16 mph 1021.2mb 46f 40f
1:06 10 15 mph 1021.2mb 46f 40f
1:00 11 16 mph 1021.1mb 46f 41f
12:54 14 16 mph 1021.1mb 46f 41f
12:48 11 17 mph 1021.2mb 46f 40f
12:42 11 14 mph 1021.3mb 46f 38f
12:36 11 16 mph 1021.2mb 46f 38f
12:30 10 15 mph 1021.2mb 46f 39f
12:24 15 17 mph 1021.1mb 46f 39f
12:18 11 16 mph 1021.3mb 46f 39f
12:12 14 15 mph 1021.3mb 46f 40f
12:06 8 14 mph 1021.4mb 46f 39f
12:00 10 16 mph 1021.4mb 46f 38f
11:54 14 17 mph 1021.4mb 46f 38f
11:48 13 16 mph 1021.5mb 46f 38f
11:42 14 21 mph 1021.5mb 46f 38f
11:36 14 18 mph 1021.5mb 46f 38f
11:30 14 16 mph 1021.6mb 46f 37f
11:24 14 16 mph 1021.7mb 46f 37f
11:18 9 16 mph 1021.8mb 46f 38f
11:12 14 16 mph 1021.6mb 46f 38f
11:06 14 15 mph 1021.8mb 46f 37f
11:00 15 17 mph 1021.7mb 46f 37f
10:54 11 17 mph 1021.7mb 46f 37f
10:48 11 16 mph 1021.6mb 46f 37f
10:42 14 17 mph 1021.7mb 46f 37f
10:36 13 15 mph 1021.6mb 46f 37f
10:30 14 18 mph 1021.7mb 46f 37f
10:24 15 20 mph 1021.7mb 46f 37f
10:18 16 21 mph 1021.7mb 46f 37f
10:12 14 17 mph 1021.8mb 46f 36f
10:06 15 18 mph 1021.9mb 46f 37f
10:00 16 18 mph 1022mb 46f 36f
9:54 16 21 mph 1021.9mb 46f 36f
9:48 14 17 mph 1022.1mb 46f 36f
9:42 14 17 mph 1022mb 46f 36f
9:36 13 16 mph 1022.1mb 46f 36f
9:30 15 20 mph 1022mb 46f 36f
9:24 16 18 mph 1021.9mb 46f 36f
9:18 14 18 mph 1021.9mb 46f 36f
9:12 13 17 mph 1021.7mb 46f 36f
9:06 13 17 mph 1021.7mb 46f 36f
9:00 14 20 mph 1021.6mb 46f 36f
8:54 15 18 mph 1021.6mb 46f 36f
8:48 17 21 mph 1021.5mb 46f 35f
8:42 14 16 mph 1021.5mb 46f 35f
8:36 14 17 mph 1021.6mb 46f 36f
8:30 13 15 mph 1021.6mb 46f 35f
8:24 14 15 mph 1021.6mb 46f 35f
8:18 14 17 mph 1021.5mb 46f 35f
8:12 10 14 mph 1021.5mb 46f 35f
8:06 11 16 mph 1021.5mb 46f 35f
8:00 13 17 mph 1021.4mb 46f 35f
7:54 14 17 mph 1021.2mb 46f 35f
7:48 13 17 mph 1021.3mb 46f 35f
7:42 11 16 mph 1021.4mb 46f 35f
7:36 14 16 mph 1021.3mb 46f 35f
7:30 14 17 mph 1021.2mb - -
7:24 13 16 mph 1021.1mb 46f 35f
7:18 13 17 mph 1021mb 46f 35f
7:12 14 15 mph 1020.9mb 46f 35f
7:06 15 17 mph 1020.8mb 46f 34f
7:00 14 18 mph 1020.8mb 46f 35f
6:54 15 18 mph 1020.8mb 45f 35f
6:48 15 17 mph 1020.8mb 45f 35f
6:42 16 18 mph 1020.7mb 45f 35f
6:36 18 21 mph 1020.7mb 45f 35f
6:30 20 24 mph 1020.7mb 45f 35f
6:24 18 22 mph 1020.6mb 45f 35f
6:18 18 22 mph 1020.5mb 45f 35f
6:12 20 23 mph 1020.4mb 45f 35f
6:06 20 22 mph 1020.5mb 45f 35f
6:00 21 24 mph 1020.5mb 45f 35f
5:54 17 21 mph 1020.6mb 45f 35f
5:48 17 20 mph 1020.6mb 46f 35f
5:42 17 22 mph 1020.5mb 46f 35f
5:36 18 23 mph 1020.6mb 46f 35f
5:30 18 22 mph 1020.5mb 46f 35f
5:24 17 21 mph 1020.4mb 46f 35f
5:18 16 20 mph 1020.3mb 46f 35f
5:12 17 21 mph 1020.3mb 46f 35f
5:06 16 20 mph 1020.3mb 46f 35f
5:00 15 20 mph 1020.3mb 47f 35f
4:54 14 20 mph 1020.3mb 47f 35f
4:48 15 18 mph 1020.4mb 47f 35f
4:42 16 21 mph 1020.3mb 47f 35f
4:36 16 20 mph 1020.3mb 47f 35f
4:30 16 18 mph 1020.3mb 46f 35f
4:24 16 18 mph 1020.3mb 46f 35f
4:18 15 18 mph 1020.4mb 46f 35f
4:12 15 17 mph 1020.5mb 46f 35f
4:06 15 18 mph 1020.5mb 46f 35f
4:00 15 18 mph 1020.6mb 46f 35f
3:54 16 18 mph 1020.5mb 46f 35f
3:48 14 16 mph 1020.5mb 47f 35f
3:42 14 17 mph 1020.6mb 47f 35f
3:36 14 18 mph 1020.5mb 47f 35f
3:30 16 18 mph 1020.5mb 47f 35f
3:24 14 20 mph 1020.4mb 47f 35f
3:18 16 18 mph 1020.3mb 47f 35f
3:12 14 18 mph 1020.4mb 47f 35f
3:06 16 20 mph 1020.3mb 47f 35f
3:00 14 17 mph 1020.3mb 47f 35f
2:54 15 20 mph 1020.2mb 47f 35f
2:48 16 18 mph 1020.2mb 47f 35f
2:42 14 17 mph 1020.2mb 47f 35f
2:36 14 18 mph 1020.1mb 47f 35f
2:30 15 18 mph 1020.1mb 47f 35f
2:24 15 17 mph 1020.1mb 47f 35f
2:18 15 17 mph 1020.1mb 47f 35f
2:12 16 20 mph 1020mb 47f 35f
2:06 17 20 mph 1019.8mb 47f 35f
2:00 17 20 mph 1019.8mb 47f 36f
1:54 16 20 mph 1019.7mb 47f 36f
1:48 18 23 mph 1019.7mb 47f 36f
1:42 18 23 mph 1019.7mb 47f 36f
1:36 16 22 mph 1019.7mb 47f 36f
1:30 20 23 mph 1019.6mb 47f 36f
1:24 18 24 mph 1019.4mb 47f 36f
1:18 17 23 mph 1019.3mb 47f 36f
1:12 17 21 mph 1019.1mb 47f 36f
1:06 17 21 mph 1019.1mb 47f 36f
1:00 16 20 mph 1019mb 47f 36f
12:54 15 17 mph 1019mb 47f 36f
12:48 15 18 mph 1018.9mb 47f 36f
12:42 13 15 mph 1018.9mb 47f 36f
12:36 14 16 mph 1019mb 47f 36f
12:30 9 13 mph 1018.9mb 47f 36f
12:24 11 15 mph 1018.8mb 47f 36f
12:18 13 16 mph 1018.7mb 47f 36f
12:12 14 16 mph 1018.5mb 47f 36f
12:06 14 16 mph 1018.6mb 47f 37f
12:00 14 16 mph 1018.5mb 47f 37f
sam. 12/03 11:54 14 17 mph 1018.4mb 47f 37f
11:48 15 17 mph 1018.3mb 47f 37f
11:42 14 16 mph 1018.1mb 47f 37f
11:36 13 16 mph 1018.2mb 47f 37f
11:30 13 15 mph 1018mb 47f 37f
11:24 14 15 mph 1018mb 47f 37f
11:18 14 17 mph 1017.9mb 47f 37f
11:12 14 22 mph 1017.9mb 47f 37f
11:06 16 21 mph 1017.5mb 47f 37f
11:00 11 14 mph 1017.6mb 47f 38f
10:54 10 14 mph 1017.7mb 47f 37f
10:48 11 15 mph 1017.6mb 47f 38f
10:42 14 17 mph 1017.4mb 47f 38f
10:36 13 16 mph 1017.3mb 47f 38f
10:30 13 16 mph 1017.3mb 47f 38f
10:24 14 20 mph 1017.2mb 47f 38f
10:18 14 20 mph 1017.1mb 47f 38f
10:12 16 21 mph 1017mb 47f 38f
10:06 17 23 mph 1016.8mb 47f 38f
10:00 17 22 mph 1016.8mb 47f 39f
9:54 20 24 mph 1016.8mb 47f 39f
9:48 20 23 mph 1016.8mb 47f 39f
9:42 22 24 mph 1016.9mb 47f 39f
9:36 22 28 mph 1016.9mb 47f 39f
9:30 20 22 mph 1017mb 47f 39f
9:24 17 22 mph 1017.1mb 47f 39f
9:18 17 22 mph 1017.1mb 47f 39f
9:12 18 22 mph 1017.1mb 47f 39f
9:06 18 25 mph 1017mb 47f 39f
9:00 20 22 mph 1016.9mb 47f 40f
8:54 20 23 mph 1017mb 47f 40f
8:48 21 24 mph 1017.1mb 47f 40f
8:42 23 26 mph 1017mb 47f 40f
8:36 22 28 mph 1017mb 47f 40f
8:30 22 26 mph 1016.9mb 47f 40f
8:24 20 25 mph 1016.9mb 47f 40f
8:18 21 28 mph 1016.9mb 47f 40f
8:12 23 29 mph 1016.9mb 47f 40f
8:06 18 22 mph 1016.9mb 47f 41f
8:00 17 24 mph 1017mb 47f 41f
7:54 21 26 mph 1016.9mb 47f 41f
7:48 25 31 mph 1016.7mb 47f 41f
7:42 29 33 mph 1016.7mb 47f 41f
7:36 29 36 mph 1016.5mb 47f 42f
7:30 32 37 mph 1016.4mb 47f 42f
7:24 25 33 mph 1016.4mb 47f 42f
7:18 29 33 mph 1016.3mb 47f 42f
7:12 24 26 mph 1016.2mb 47f 42f
7:06 25 30 mph 1016.2mb 47f 42f
7:00 26 36 mph 1016mb 47f 42f
6:54 28 34 mph 1015.9mb 47f 42f
6:48 26 32 mph 1016mb 47f 42f
6:42 23 29 mph 1016mb 47f 42f
6:36 21 28 mph 1016.1mb 47f 42f
6:30 22 26 mph 1016.1mb 47f 42f
6:24 21 26 mph 1016.2mb 47f 42f
6:18 17 20 mph 1016.2mb 47f 42f
6:12 14 18 mph 1016mb 47f 42f
6:06 17 21 mph 1015.9mb 47f 42f
6:00 16 21 mph 1015.9mb 47f 42f
5:54 15 21 mph 1015.7mb 47f 42f
5:48 16 21 mph 1015.6mb 47f 42f
5:42 16 24 mph 1015.5mb 47f 42f
5:36 17 20 mph 1015.3mb 47f 42f
5:30 16 20 mph 1015.2mb 47f 42f
5:24 17 21 mph 1015.1mb 47f 42f
5:18 18 22 mph 1014.9mb 47f 42f
5:12 17 21 mph 1014.8mb 47f 42f
5:06 17 22 mph 1014.7mb 47f 42f
5:00 14 16 mph 1014.7mb 47f 42f
4:54 16 20 mph 1014.5mb 47f 42f
4:48 20 23 mph 1014.3mb 47f 42f
4:42 15 22 mph 1014.2mb 47f 42f
4:36 21 24 mph 1014.1mb 47f 43f
4:30 20 24 mph 1014mb 47f 43f
4:24 18 28 mph 1013.9mb 47f 43f
4:18 22 28 mph 1013.8mb 47f 43f
4:12 22 26 mph 1013.6mb 47f 43f
4:06 24 30 mph 1013.4mb 47f 43f
4:00 17 22 mph 1013.5mb 47f 43f
3:54 20 24 mph 1013.4mb 47f 43f
3:48 21 24 mph 1013.2mb 47f 43f
3:42 20 25 mph 1013.1mb 47f 43f
3:36 18 26 mph 1013mb 47f 43f
3:30 22 28 mph 1012.9mb 47f 43f
3:24 23 30 mph 1012.9mb 47f 43f
3:18 29 32 mph 1012.7mb 47f 43f
3:12 24 34 mph 1012.8mb 47f 43f
3:06 25 33 mph 1012.7mb 47f 43f
3:00 25 31 mph 1012.7mb 47f 43f
2:54 24 29 mph 1012.6mb 47f 43f
2:48 23 30 mph 1012.6mb 47f 44f
2:42 28 30 mph 1012.5mb 47f 43f
2:36 26 36 mph 1012.4mb 47f 43f
2:30 26 31 mph 1012.3mb 47f 43f
2:24 28 34 mph 1012.2mb 47f 44f
2:18 26 30 mph 1012.2mb 47f 43f
2:12 28 31 mph 1012.1mb 47f 44f
2:06 30 36 mph 1012mb 47f 44f
2:00 30 38 mph 1012mb 47f 43f
1:54 31 37 mph 1011.9mb 47f 44f
1:48 33 37 mph 1011.8mb 47f 44f
1:42 30 34 mph 1011.8mb 47f 44f
1:36 29 36 mph 1011.8mb 47f 44f
1:30 30 33 mph 1011.7mb 47f 44f
1:24 29 34 mph 1011.8mb 47f 44f
1:18 21 30 mph 1011.8mb 47f 45f
1:12 23 29 mph 1011.7mb 47f 44f
1:06 23 29 mph 1011.7mb 47f 44f
1:00 29 32 mph 1011.5mb 47f 44f
12:54 24 31 mph 1011.6mb 47f 44f
12:48 28 31 mph 1011.5mb 47f 44f
12:42 24 30 mph 1011.5mb 47f 44f
12:36 24 28 mph 1011.6mb 47f 44f
12:30 24 29 mph 1011.5mb 47f 44f
12:24 24 32 mph 1011.5mb 47f 44f
12:18 29 33 mph 1011.5mb 47f 44f
12:12 25 28 mph 1011.6mb 47f 44f
12:06 21 29 mph 1011.7mb 47f 44f
12:00 24 28 mph 1011.7mb 47f 44f
11:54 20 28 mph 1011.8mb 47f 44f
11:48 20 24 mph 1011.9mb 47f 44f
11:42 23 29 mph 1011.8mb 47f 44f
11:36 23 26 mph 1011.8mb 47f 43f
11:30 24 31 mph 1011.8mb 47f 44f
11:24 28 30 mph 1011.6mb 47f 44f
11:18 23 29 mph 1011.8mb 47f 43f
11:12 25 29 mph 1011.7mb 47f 43f
11:06 25 30 mph 1011.7mb 47f 43f
11:00 25 29 mph 1011.7mb 47f 43f
10:54 29 34 mph 1011.6mb 47f 43f
10:48 26 30 mph 1011.6mb 47f 43f
10:42 29 36 mph 1011.6mb 47f 43f
10:36 24 31 mph 1011.7mb 47f 43f
10:30 26 30 mph 1011.7mb 47f 43f
10:24 22 28 mph 1011.7mb 47f 43f
10:18 26 34 mph 1011.8mb 47f 42f
10:12 26 29 mph 1011.7mb 47f 42f
10:06 23 26 mph 1011.7mb 47f 42f
10:00 24 29 mph 1011.6mb 47f 42f
9:54 26 36 mph 1011.5mb 47f 42f
9:48 23 29 mph 1011.7mb 47f 42f
9:42 23 30 mph 1011.7mb 47f 42f
9:36 25 31 mph 1011.6mb 46f 42f
9:30 23 28 mph 1011.6mb 46f 42f
9:24 23 31 mph 1011.6mb 46f 42f
9:18 24 34 mph 1011.5mb 46f 41f
9:12 20 28 mph 1011.4mb 47f 41f
9:06 23 26 mph 1011.3mb 46f 41f
9:00 24 28 mph 1011.2mb 47f 41f
8:54 22 30 mph 1011.1mb 47f 41f
8:48 24 28 mph 1011mb 46f 41f
8:42 21 30 mph 1011.1mb 46f 41f
8:36 24 29 mph 1011mb 46f 41f
8:30 25 29 mph 1010.9mb 46f 41f
8:24 25 32 mph 1010.8mb 47f 41f
8:18 23 28 mph 1010.7mb 47f 40f
8:12 22 29 mph 1010.7mb 47f 40f
8:06 23 26 mph 1010.8mb 47f 40f
8:00 23 28 mph 1010.7mb 47f 40f
7:54 21 26 mph 1010.6mb 47f 40f
7:48 23 25 mph 1010.5mb 47f 40f
7:42 22 26 mph 1010.5mb 47f 40f
7:36 18 23 mph 1010.5mb 47f 40f
7:30 18 24 mph 1010.5mb 47f 40f
7:24 20 23 mph 1010.5mb 47f 40f
7:18 18 25 mph 1010.4mb 47f 40f
7:12 20 24 mph 1010.2mb 47f 40f
7:06 17 21 mph 1010.1mb 47f 40f
7:00 18 22 mph 1010.2mb 47f 40f
6:54 20 22 mph 1010.1mb 47f 40f
6:48 17 21 mph 1010.1mb 47f 40f
6:42 16 22 mph 1010mb 47f 40f
6:36 16 21 mph 1010.1mb 47f 40f
6:30 14 22 mph 1010mb 47f 40f
6:24 15 18 mph 1010mb 47f 40f
6:18 17 22 mph 1009.9mb 47f 40f
6:12 17 23 mph 1009.8mb 47f 40f
6:06 17 25 mph 1009.7mb 47f 40f
6:00 17 24 mph 1009.6mb 47f 40f
5:54 18 24 mph 1009.6mb 47f 40f
5:48 17 24 mph 1009.5mb 47f 40f
5:42 20 23 mph 1009.3mb 47f 40f
5:36 20 24 mph 1009.3mb 47f 40f
5:30 18 23 mph 1009.3mb 47f 40f
5:24 16 20 mph 1009.3mb 47f 40f
5:18 16 21 mph 1009.4mb 47f 40f
5:12 18 22 mph 1009.3mb 47f 40f
5:06 20 23 mph 1009.2mb 47f 40f
5:00 18 23 mph 1009.1mb 47f 40f
4:54 20 22 mph 1009.1mb 47f 40f
4:48 18 22 mph 1009mb 48f 40f
4:42 18 22 mph 1009.1mb 48f 40f
4:36 18 21 mph 1009.1mb 47f 40f
4:30 18 22 mph 1009mb 47f 40f
4:24 20 22 mph 1009mb 47f 40f
4:18 20 23 mph 1008.9mb 47f 40f
4:12 20 24 mph 1008.9mb 47f 40f
4:06 17 22 mph 1008.9mb 47f 41f
4:00 17 22 mph 1008.8mb 47f 41f
3:54 20 22 mph 1008.7mb 47f 41f
3:48 17 21 mph 1008.7mb 47f 41f
3:42 18 22 mph 1008.7mb 47f 41f
3:36 21 23 mph 1008.6mb 47f 41f
3:30 17 21 mph 1008.6mb 47f 41f
3:24 17 22 mph 1008.6mb 47f 41f
3:18 16 20 mph 1008.6mb 47f 41f
3:12 17 20 mph 1008.6mb 47f 41f
3:06 18 23 mph 1008.5mb 47f 41f
3:00 20 23 mph 1008.5mb 47f 41f
2:54 18 23 mph 1008.5mb 47f 41f
2:48 20 22 mph 1008.5mb 47f 42f
2:42 17 21 mph 1008.5mb 47f 42f
2:36 16 23 mph 1008.6mb 47f 42f
2:30 17 22 mph 1008.6mb 47f 42f
2:24 17 23 mph 1008.6mb 47f 42f
2:18 16 21 mph 1008.6mb 47f 42f
2:12 16 23 mph 1008.5mb 47f 42f
2:06 18 26 mph 1008.6mb 47f 42f
2:00 18 25 mph 1008.4mb 47f 42f
1:54 18 28 mph 1008.4mb 47f 42f
1:48 21 26 mph 1008.3mb 47f 42f
1:42 23 28 mph 1008.3mb 47f 42f
1:36 20 24 mph 1008.3mb 47f 42f
1:30 20 24 mph 1008.4mb 47f 42f
1:24 20 25 mph 1008.5mb 47f 42f
1:18 20 28 mph 1008.3mb 47f 42f
1:12 22 28 mph 1008.3mb 47f 42f
1:06 21 28 mph 1008.3mb 47f 42f
1:00 24 29 mph 1008.1mb 47f 42f
12:54 22 28 mph 1008.1mb 47f 42f
12:48 24 29 mph 1008mb 47f 42f
12:42 22 26 mph 1007.9mb 47f 42f
12:36 20 25 mph 1007.8mb 47f 42f
12:30 22 29 mph 1007.8mb 47f 42f
12:24 24 28 mph 1007.8mb 47f 42f
12:18 21 26 mph 1007.8mb 47f 42f
12:12 16 23 mph 1007.6mb 47f 41f
12:06 25 30 mph 1007.7mb 47f 42f
12:00 22 26 mph 1007.8mb 47f 42f
ven. 12/02 11:54 18 23 mph 1007.7mb 48f 42f
11:48 18 24 mph 1007.7mb 48f 42f
11:42 17 22 mph 1007.9mb 48f 42f
11:36 20 24 mph 1007.8mb 48f 42f
11:30 17 23 mph 1007.9mb 48f 42f
11:24 21 25 mph 1007.9mb 48f 42f
11:18 17 21 mph 1008.2mb 48f 42f
11:12 15 17 mph 1008.2mb 48f 42f
11:06 16 21 mph 1008.3mb 48f 42f
11:00 14 17 mph 1008.3mb 48f 42f
10:54 15 18 mph 1008.3mb 48f 42f
10:48 14 18 mph 1008.3mb 48f 42f
10:42 10 17 mph 1008.3mb 48f 42f
10:36 10 14 mph 1008.3mb 48f 42f
10:30 11 15 mph 1008.3mb 48f 42f
10:24 13 14 mph 1008.3mb 48f 43f
10:18 11 14 mph 1008.3mb 48f 43f
10:12 11 16 mph 1008.2mb 48f 43f
10:06 15 18 mph 1008.1mb 48f 43f
10:00 14 16 mph 1008.1mb 48f 43f
9:54 14 17 mph 1008.1mb 48f 43f
9:48 13 16 mph 1008.1mb 48f 43f
9:42 10 16 mph 1008.1mb 48f 43f
9:36 13 15 mph 1008.2mb 48f 43f
9:30 10 14 mph 1008.2mb 48f 44f
9:24 13 20 mph 1008.2mb 48f 44f
9:18 13 17 mph 1008.2mb 48f 44f
9:12 15 18 mph 1008.2mb 48f 44f
9:06 16 18 mph 1008.3mb 48f 44f
9:00 14 17 mph 1008.3mb 48f 44f
8:54 11 16 mph 1008.2mb 48f 44f
8:48 13 16 mph 1008.2mb 48f 45f
8:42 11 14 mph 1008.2mb 48f 45f
8:36 9 14 mph 1008.2mb 48f 45f
8:30 11 14 mph 1008.2mb 48f 45f
8:24 9 13 mph 1008.1mb 48f 45f
8:18 11 14 mph 1008.2mb 48f 46f
8:12 13 16 mph 1008.2mb 48f 46f
8:06 13 15 mph 1008.3mb 48f 46f
8:00 13 15 mph 1008.3mb 48f 46f
7:54 13 15 mph 1008.3mb 48f 46f
7:48 14 16 mph 1008.4mb 48f 46f
7:42 13 15 mph 1008.4mb 48f 46f
7:36 10 15 mph 1008.4mb 48f 46f
7:30 14 17 mph 1008.5mb 48f 47f
7:24 13 16 mph 1008.5mb 48f 47f
7:18 13 18 mph 1008.6mb 48f 47f
7:12 15 23 mph 1008.6mb 48f 47f
7:06 16 18 mph 1008.6mb 48f 47f
7:00 15 22 mph 1008.6mb 48f 47f
6:54 17 23 mph 1008.6mb 48f 47f
6:48 13 18 mph 1008.6mb 48f 47f
6:30 7 9 mph 1008.6mb 48f 47f
6:24 8 10 mph 1008.6mb 48f 47f
6:18 9 10 mph 1008.6mb 48f 47f
6:12 10 13 mph 1008.6mb 48f 47f
6:06 11 17 mph 1008.5mb 48f 48f
6:00 15 17 mph 1008.5mb 48f 48f
5:54 8 10 mph 1008.4mb 48f 47f
5:48 9 11 mph 1008.4mb 48f 47f
4:54 16 20 mph 1008.6mb 48f 48f
4:48 11 15 mph 1008.5mb 48f 47f
4:18 6 8 mph 1008.2mb 48f 47f
4:12 6 8 mph 1008.1mb 48f 47f
4:06 9 11 mph 1008.1mb 48f 48f